sensor_id;sensor_type;location;lat;lon;timestamp;P1;durP1;ratioP1;P2;durP2;ratioP2
15905;SDS011;8051;50.820;4.884;2023-07-31T00:01:37;20.10;;;14.77;;
15905;SDS011;8051;50.820;4.884;2023-07-31T00:04:04;16.53;;;14.87;;
15905;SDS011;8051;50.820;4.884;2023-07-31T00:06:32;19.30;;;14.10;;
15905;SDS011;8051;50.820;4.884;2023-07-31T00:08:59;20.47;;;14.67;;
15905;SDS011;8051;50.820;4.884;2023-07-31T00:11:28;16.90;;;14.80;;
15905;SDS011;8051;50.820;4.884;2023-07-31T00:13:56;18.90;;;15.43;;
15905;SDS011;8051;50.820;4.884;2023-07-31T00:16:23;16.93;;;15.20;;
15905;SDS011;8051;50.820;4.884;2023-07-31T00:18:51;20.67;;;15.67;;
15905;SDS011;8051;50.820;4.884;2023-07-31T00:21:18;16.67;;;15.20;;
15905;SDS011;8051;50.820;4.884;2023-07-31T00:23:46;16.73;;;15.27;;
15905;SDS011;8051;50.820;4.884;2023-07-31T00:26:13;16.13;;;14.57;;
15905;SDS011;8051;50.820;4.884;2023-07-31T00:28:42;22.07;;;15.80;;
15905;SDS011;8051;50.820;4.884;2023-07-31T00:31:09;16.60;;;14.83;;
15905;SDS011;8051;50.820;4.884;2023-07-31T00:33:37;17.17;;;15.37;;
15905;SDS011;8051;50.820;4.884;2023-07-31T00:36:10;17.23;;;15.53;;
15905;SDS011;8051;50.820;4.884;2023-07-31T00:38:38;17.37;;;15.77;;
15905;SDS011;8051;50.820;4.884;2023-07-31T00:41:05;17.37;;;15.70;;
15905;SDS011;8051;50.820;4.884;2023-07-31T00:43:33;17.07;;;15.37;;
15905;SDS011;8051;50.820;4.884;2023-07-31T00:46:02;17.30;;;15.73;;
15905;SDS011;8051;50.820;4.884;2023-07-31T00:48:29;16.93;;;14.03;;
15905;SDS011;8051;50.820;4.884;2023-07-31T00:50:56;15.37;;;14.07;;
15905;SDS011;8051;50.820;4.884;2023-07-31T00:53:24;17.17;;;15.07;;
15905;SDS011;8051;50.820;4.884;2023-07-31T00:55:52;15.73;;;14.40;;
15905;SDS011;8051;50.820;4.884;2023-07-31T00:58:21;17.17;;;15.60;;
15905;SDS011;8051;50.820;4.884;2023-07-31T01:00:48;16.10;;;14.43;;
15905;SDS011;8051;50.820;4.884;2023-07-31T01:03:18;17.97;;;14.30;;
15905;SDS011;8051;50.820;4.884;2023-07-31T01:05:49;17.30;;;15.57;;
15905;SDS011;8051;50.820;4.884;2023-07-31T01:08:23;18.93;;;16.27;;
15905;SDS011;8051;50.820;4.884;2023-07-31T01:10:56;17.33;;;15.83;;
15905;SDS011;8051;50.820;4.884;2023-07-31T01:13:28;17.47;;;15.83;;
15905;SDS011;8051;50.820;4.884;2023-07-31T01:15:56;16.80;;;15.50;;
15905;SDS011;8051;50.820;4.884;2023-07-31T01:18:25;17.13;;;15.50;;
15905;SDS011;8051;50.820;4.884;2023-07-31T01:20:54;18.17;;;16.20;;
15905;SDS011;8051;50.820;4.884;2023-07-31T01:23:40;17.50;;;16.00;;
15905;SDS011;8051;50.820;4.884;2023-07-31T01:26:28;17.63;;;15.93;;
15905;SDS011;8051;50.820;4.884;2023-07-31T01:29:00;22.60;;;16.73;;
15905;SDS011;8051;50.820;4.884;2023-07-31T01:31:31;17.70;;;16.27;;
15905;SDS011;8051;50.820;4.884;2023-07-31T01:33:59;18.70;;;17.00;;
15905;SDS011;8051;50.820;4.884;2023-07-31T01:36:28;18.70;;;16.20;;
15905;SDS011;8051;50.820;4.884;2023-07-31T01:38:57;17.47;;;15.97;;
15905;SDS011;8051;50.820;4.884;2023-07-31T01:41:26;16.40;;;14.97;;
15905;SDS011;8051;50.820;4.884;2023-07-31T01:43:55;17.07;;;15.43;;
15905;SDS011;8051;50.820;4.884;2023-07-31T01:46:22;19.63;;;15.50;;
15905;SDS011;8051;50.820;4.884;2023-07-31T01:48:50;17.00;;;15.43;;
15905;SDS011;8051;50.820;4.884;2023-07-31T01:51:17;16.20;;;14.80;;
15905;SDS011;8051;50.820;4.884;2023-07-31T01:53:45;17.23;;;15.47;;
15905;SDS011;8051;50.820;4.884;2023-07-31T01:56:12;16.23;;;14.70;;
15905;SDS011;8051;50.820;4.884;2023-07-31T01:58:41;17.97;;;15.90;;
15905;SDS011;8051;50.820;4.884;2023-07-31T02:01:09;16.70;;;14.80;;
15905;SDS011;8051;50.820;4.884;2023-07-31T02:03:36;16.10;;;14.77;;
15905;SDS011;8051;50.820;4.884;2023-07-31T02:06:04;14.73;;;13.53;;
15905;SDS011;8051;50.820;4.884;2023-07-31T02:08:31;17.73;;;15.50;;
15905;SDS011;8051;50.820;4.884;2023-07-31T02:10:58;16.57;;;15.03;;
15905;SDS011;8051;50.820;4.884;2023-07-31T02:13:26;22.87;;;14.93;;
15905;SDS011;8051;50.820;4.884;2023-07-31T02:15:55;16.03;;;14.17;;
15905;SDS011;8051;50.820;4.884;2023-07-31T02:18:22;15.80;;;14.47;;
15905;SDS011;8051;50.820;4.884;2023-07-31T02:20:50;20.03;;;15.87;;
15905;SDS011;8051;50.820;4.884;2023-07-31T02:23:18;15.77;;;14.50;;
15905;SDS011;8051;50.820;4.884;2023-07-31T02:25:46;17.37;;;15.23;;
15905;SDS011;8051;50.820;4.884;2023-07-31T02:28:13;15.23;;;14.00;;
15905;SDS011;8051;50.820;4.884;2023-07-31T02:30:43;15.57;;;14.20;;
15905;SDS011;8051;50.820;4.884;2023-07-31T02:33:13;15.87;;;14.67;;
15905;SDS011;8051;50.820;4.884;2023-07-31T02:35:42;15.70;;;14.40;;
15905;SDS011;8051;50.820;4.884;2023-07-31T02:38:10;16.30;;;14.93;;
15905;SDS011;8051;50.820;4.884;2023-07-31T02:40:38;15.77;;;14.20;;
15905;SDS011;8051;50.820;4.884;2023-07-31T02:43:06;15.50;;;14.17;;
15905;SDS011;8051;50.820;4.884;2023-07-31T02:45:34;15.77;;;14.17;;
15905;SDS011;8051;50.820;4.884;2023-07-31T02:48:01;15.37;;;14.03;;
15905;SDS011;8051;50.820;4.884;2023-07-31T02:50:31;17.53;;;14.63;;
15905;SDS011;8051;50.820;4.884;2023-07-31T02:52:59;13.80;;;12.53;;
15905;SDS011;8051;50.820;4.884;2023-07-31T02:55:27;15.37;;;13.97;;
15905;SDS011;8051;50.820;4.884;2023-07-31T02:57:54;15.37;;;14.17;;
15905;SDS011;8051;50.820;4.884;2023-07-31T03:00:23;15.80;;;14.33;;
15905;SDS011;8051;50.820;4.884;2023-07-31T03:02:53;15.33;;;14.10;;
15905;SDS011;8051;50.820;4.884;2023-07-31T03:05:21;15.23;;;14.13;;
15905;SDS011;8051;50.820;4.884;2023-07-31T03:07:50;16.13;;;14.67;;
15905;SDS011;8051;50.820;4.884;2023-07-31T03:10:17;16.10;;;14.43;;
15905;SDS011;8051;50.820;4.884;2023-07-31T03:12:46;14.03;;;12.90;;
15905;SDS011;8051;50.820;4.884;2023-07-31T03:15:14;16.03;;;14.47;;
15905;SDS011;8051;50.820;4.884;2023-07-31T03:17:43;13.30;;;12.30;;
15905;SDS011;8051;50.820;4.884;2023-07-31T03:20:11;14.37;;;13.07;;
15905;SDS011;8051;50.820;4.884;2023-07-31T03:22:38;13.10;;;12.20;;
15905;SDS011;8051;50.820;4.884;2023-07-31T03:25:08;15.30;;;13.93;;
15905;SDS011;8051;50.820;4.884;2023-07-31T03:27:36;15.40;;;14.10;;
15905;SDS011;8051;50.820;4.884;2023-07-31T03:30:04;14.87;;;13.77;;
15905;SDS011;8051;50.820;4.884;2023-07-31T03:32:32;15.17;;;13.83;;
15905;SDS011;8051;50.820;4.884;2023-07-31T03:34:59;15.97;;;14.67;;
15905;SDS011;8051;50.820;4.884;2023-07-31T03:37:29;15.90;;;14.70;;
15905;SDS011;8051;50.820;4.884;2023-07-31T03:39:56;13.80;;;12.73;;
15905;SDS011;8051;50.820;4.884;2023-07-31T03:42:25;14.17;;;13.13;;
15905;SDS011;8051;50.820;4.884;2023-07-31T03:44:52;14.47;;;13.37;;
15905;SDS011;8051;50.820;4.884;2023-07-31T03:47:20;13.53;;;12.60;;
15905;SDS011;8051;50.820;4.884;2023-07-31T03:49:47;15.50;;;14.37;;
15905;SDS011;8051;50.820;4.884;2023-07-31T03:52:15;16.57;;;15.30;;
15905;SDS011;8051;50.820;4.884;2023-07-31T03:54:42;14.53;;;13.37;;
15905;SDS011;8051;50.820;4.884;2023-07-31T03:57:10;15.87;;;14.57;;
15905;SDS011;8051;50.820;4.884;2023-07-31T03:59:39;15.67;;;14.67;;
15905;SDS011;8051;50.820;4.884;2023-07-31T04:02:06;16.53;;;15.33;;
15905;SDS011;8051;50.820;4.884;2023-07-31T04:04:34;14.57;;;13.37;;
15905;SDS011;8051;50.820;4.884;2023-07-31T04:07:01;15.33;;;14.30;;
15905;SDS011;8051;50.820;4.884;2023-07-31T04:09:29;15.40;;;14.10;;
15905;SDS011;8051;50.820;4.884;2023-07-31T04:11:57;13.70;;;12.83;;
15905;SDS011;8051;50.820;4.884;2023-07-31T04:14:24;15.90;;;14.70;;
15905;SDS011;8051;50.820;4.884;2023-07-31T04:16:53;12.77;;;11.67;;
15905;SDS011;8051;50.820;4.884;2023-07-31T04:19:20;12.83;;;11.97;;
15905;SDS011;8051;50.820;4.884;2023-07-31T04:21:47;14.13;;;12.87;;
15905;SDS011;8051;50.820;4.884;2023-07-31T04:24:15;13.13;;;12.07;;
15905;SDS011;8051;50.820;4.884;2023-07-31T04:26:49;11.77;;;10.77;;
15905;SDS011;8051;50.820;4.884;2023-07-31T04:29:16;17.20;;;11.33;;
15905;SDS011;8051;50.820;4.884;2023-07-31T04:31:44;13.40;;;12.03;;
15905;SDS011;8051;50.820;4.884;2023-07-31T04:34:13;12.63;;;11.37;;
15905;SDS011;8051;50.820;4.884;2023-07-31T04:36:40;11.90;;;10.77;;
15905;SDS011;8051;50.820;4.884;2023-07-31T04:39:07;12.07;;;10.87;;
15905;SDS011;8051;50.820;4.884;2023-07-31T04:41:35;12.63;;;10.60;;
15905;SDS011;8051;50.820;4.884;2023-07-31T04:44:02;14.90;;;13.43;;
15905;SDS011;8051;50.820;4.884;2023-07-31T04:46:30;13.27;;;10.93;;
15905;SDS011;8051;50.820;4.884;2023-07-31T04:48:57;14.37;;;13.30;;
15905;SDS011;8051;50.820;4.884;2023-07-31T04:51:26;13.83;;;12.57;;
15905;SDS011;8051;50.820;4.884;2023-07-31T04:53:54;13.37;;;12.37;;
15905;SDS011;8051;50.820;4.884;2023-07-31T04:56:22;13.20;;;12.23;;
15905;SDS011;8051;50.820;4.884;2023-07-31T04:58:49;14.50;;;13.27;;
15905;SDS011;8051;50.820;4.884;2023-07-31T05:01:17;15.40;;;13.83;;
15905;SDS011;8051;50.820;4.884;2023-07-31T05:03:44;14.50;;;13.40;;
15905;SDS011;8051;50.820;4.884;2023-07-31T05:06:11;14.13;;;13.03;;
15905;SDS011;8051;50.820;4.884;2023-07-31T05:08:41;14.50;;;13.10;;
15905;SDS011;8051;50.820;4.884;2023-07-31T05:11:09;16.63;;;15.00;;
15905;SDS011;8051;50.820;4.884;2023-07-31T05:13:36;14.87;;;13.87;;
15905;SDS011;8051;50.820;4.884;2023-07-31T05:16:04;16.83;;;15.53;;
15905;SDS011;8051;50.820;4.884;2023-07-31T05:18:32;15.73;;;14.40;;
15905;SDS011;8051;50.820;4.884;2023-07-31T05:20:59;16.80;;;15.47;;
15905;SDS011;8051;50.820;4.884;2023-07-31T05:23:27;16.60;;;15.20;;
15905;SDS011;8051;50.820;4.884;2023-07-31T05:26:03;15.07;;;13.97;;
15905;SDS011;8051;50.820;4.884;2023-07-31T05:28:31;15.43;;;14.33;;
15905;SDS011;8051;50.820;4.884;2023-07-31T05:30:59;15.40;;;14.27;;
15905;SDS011;8051;50.820;4.884;2023-07-31T05:33:26;16.53;;;15.13;;
15905;SDS011;8051;50.820;4.884;2023-07-31T05:35:54;15.30;;;14.10;;
15905;SDS011;8051;50.820;4.884;2023-07-31T05:38:21;15.47;;;14.37;;
15905;SDS011;8051;50.820;4.884;2023-07-31T05:40:49;14.83;;;13.63;;
15905;SDS011;8051;50.820;4.884;2023-07-31T05:43:18;15.40;;;14.33;;
15905;SDS011;8051;50.820;4.884;2023-07-31T05:45:45;15.43;;;14.37;;
15905;SDS011;8051;50.820;4.884;2023-07-31T05:48:12;16.37;;;14.97;;
15905;SDS011;8051;50.820;4.884;2023-07-31T05:50:40;14.87;;;13.07;;
15905;SDS011;8051;50.820;4.884;2023-07-31T05:53:07;15.87;;;14.50;;
15905;SDS011;8051;50.820;4.884;2023-07-31T05:55:35;15.23;;;13.87;;
15905;SDS011;8051;50.820;4.884;2023-07-31T05:58:03;13.40;;;12.43;;
15905;SDS011;8051;50.820;4.884;2023-07-31T06:00:32;14.53;;;13.27;;
15905;SDS011;8051;50.820;4.884;2023-07-31T06:03:00;15.80;;;14.23;;
15905;SDS011;8051;50.820;4.884;2023-07-31T06:05:27;14.70;;;13.30;;
15905;SDS011;8051;50.820;4.884;2023-07-31T06:07:55;13.97;;;12.90;;
15905;SDS011;8051;50.820;4.884;2023-07-31T06:10:23;12.67;;;11.40;;
15905;SDS011;8051;50.820;4.884;2023-07-31T06:12:50;13.30;;;12.20;;
15905;SDS011;8051;50.820;4.884;2023-07-31T06:15:19;12.30;;;11.10;;
15905;SDS011;8051;50.820;4.884;2023-07-31T06:17:48;13.00;;;11.90;;
15905;SDS011;8051;50.820;4.884;2023-07-31T06:20:15;13.70;;;12.53;;
15905;SDS011;8051;50.820;4.884;2023-07-31T06:22:43;13.50;;;12.30;;
15905;SDS011;8051;50.820;4.884;2023-07-31T06:25:11;12.03;;;11.10;;
15905;SDS011;8051;50.820;4.884;2023-07-31T06:27:38;14.70;;;12.13;;
15905;SDS011;8051;50.820;4.884;2023-07-31T06:30:06;11.27;;;10.27;;
15905;SDS011;8051;50.820;4.884;2023-07-31T06:32:34;13.57;;;12.27;;
15905;SDS011;8051;50.820;4.884;2023-07-31T06:35:03;13.13;;;12.13;;
15905;SDS011;8051;50.820;4.884;2023-07-31T06:37:31;14.20;;;12.73;;
15905;SDS011;8051;50.820;4.884;2023-07-31T06:39:59;13.10;;;12.00;;
15905;SDS011;8051;50.820;4.884;2023-07-31T06:42:26;13.07;;;11.87;;
15905;SDS011;8051;50.820;4.884;2023-07-31T06:44:54;14.20;;;13.20;;
15905;SDS011;8051;50.820;4.884;2023-07-31T06:47:21;13.30;;;12.40;;
15905;SDS011;8051;50.820;4.884;2023-07-31T06:49:49;13.00;;;11.93;;
15905;SDS011;8051;50.820;4.884;2023-07-31T06:52:17;13.67;;;12.67;;
15905;SDS011;8051;50.820;4.884;2023-07-31T06:54:56;14.20;;;13.10;;
15905;SDS011;8051;50.820;4.884;2023-07-31T06:57:28;14.30;;;13.23;;
15905;SDS011;8051;50.820;4.884;2023-07-31T06:59:55;17.40;;;14.57;;
15905;SDS011;8051;50.820;4.884;2023-07-31T07:02:23;14.23;;;13.00;;
15905;SDS011;8051;50.820;4.884;2023-07-31T07:04:50;15.17;;;13.87;;
15905;SDS011;8051;50.820;4.884;2023-07-31T07:07:19;15.40;;;14.17;;
15905;SDS011;8051;50.820;4.884;2023-07-31T07:09:46;14.90;;;13.93;;
15905;SDS011;8051;50.820;4.884;2023-07-31T07:12:14;15.33;;;13.87;;
15905;SDS011;8051;50.820;4.884;2023-07-31T07:14:41;14.63;;;13.43;;
15905;SDS011;8051;50.820;4.884;2023-07-31T07:17:11;16.50;;;15.37;;
15905;SDS011;8051;50.820;4.884;2023-07-31T07:19:40;15.63;;;14.37;;
15905;SDS011;8051;50.820;4.884;2023-07-31T07:22:07;16.33;;;15.17;;
15905;SDS011;8051;50.820;4.884;2023-07-31T07:24:36;16.10;;;14.87;;
15905;SDS011;8051;50.820;4.884;2023-07-31T07:27:04;15.60;;;14.27;;
15905;SDS011;8051;50.820;4.884;2023-07-31T07:29:33;16.10;;;14.50;;
15905;SDS011;8051;50.820;4.884;2023-07-31T07:32:01;17.70;;;16.47;;
15905;SDS011;8051;50.820;4.884;2023-07-31T07:34:28;18.80;;;17.47;;
15905;SDS011;8051;50.820;4.884;2023-07-31T07:36:56;18.70;;;17.50;;
15905;SDS011;8051;50.820;4.884;2023-07-31T07:39:23;18.87;;;17.50;;
15905;SDS011;8051;50.820;4.884;2023-07-31T07:41:52;20.03;;;18.37;;
15905;SDS011;8051;50.820;4.884;2023-07-31T07:44:20;18.90;;;17.37;;
15905;SDS011;8051;50.820;4.884;2023-07-31T07:46:47;19.60;;;18.17;;
15905;SDS011;8051;50.820;4.884;2023-07-31T07:49:15;19.37;;;18.03;;
15905;SDS011;8051;50.820;4.884;2023-07-31T07:51:42;19.67;;;18.20;;
15905;SDS011;8051;50.820;4.884;2023-07-31T07:54:09;18.67;;;17.23;;
15905;SDS011;8051;50.820;4.884;2023-07-31T07:56:37;19.83;;;18.40;;
15905;SDS011;8051;50.820;4.884;2023-07-31T07:59:06;18.63;;;17.23;;
15905;SDS011;8051;50.820;4.884;2023-07-31T08:01:33;19.00;;;17.77;;
15905;SDS011;8051;50.820;4.884;2023-07-31T08:04:01;19.53;;;18.33;;
15905;SDS011;8051;50.820;4.884;2023-07-31T08:06:28;20.20;;;18.57;;
15905;SDS011;8051;50.820;4.884;2023-07-31T08:08:56;21.63;;;19.60;;
15905;SDS011;8051;50.820;4.884;2023-07-31T08:11:23;20.20;;;18.67;;
15905;SDS011;8051;50.820;4.884;2023-07-31T08:13:51;19.80;;;18.40;;
15905;SDS011;8051;50.820;4.884;2023-07-31T08:16:20;20.00;;;18.67;;
15905;SDS011;8051;50.820;4.884;2023-07-31T08:18:47;19.97;;;18.63;;
15905;SDS011;8051;50.820;4.884;2023-07-31T08:21:15;20.87;;;19.43;;
15905;SDS011;8051;50.820;4.884;2023-07-31T08:23:42;20.73;;;18.83;;
15905;SDS011;8051;50.820;4.884;2023-07-31T08:26:14;19.57;;;18.17;;
15905;SDS011;8051;50.820;4.884;2023-07-31T08:28:41;19.90;;;18.30;;
15905;SDS011;8051;50.820;4.884;2023-07-31T08:31:09;20.87;;;19.30;;
15905;SDS011;8051;50.820;4.884;2023-07-31T08:33:38;19.83;;;18.10;;
15905;SDS011;8051;50.820;4.884;2023-07-31T08:36:06;19.37;;;18.07;;
15905;SDS011;8051;50.820;4.884;2023-07-31T08:38:34;18.63;;;17.13;;
15905;SDS011;8051;50.820;4.884;2023-07-31T08:41:02;18.40;;;17.23;;
15905;SDS011;8051;50.820;4.884;2023-07-31T08:43:30;18.83;;;17.50;;
15905;SDS011;8051;50.820;4.884;2023-07-31T08:45:59;18.70;;;17.40;;
15905;SDS011;8051;50.820;4.884;2023-07-31T08:48:27;17.30;;;16.10;;
15905;SDS011;8051;50.820;4.884;2023-07-31T08:50:57;18.60;;;17.23;;
15905;SDS011;8051;50.820;4.884;2023-07-31T08:53:24;17.77;;;16.60;;
15905;SDS011;8051;50.820;4.884;2023-07-31T08:55:52;18.20;;;16.90;;
15905;SDS011;8051;50.820;4.884;2023-07-31T08:58:20;17.07;;;15.93;;
15905;SDS011;8051;50.820;4.884;2023-07-31T09:00:49;17.17;;;16.07;;
15905;SDS011;8051;50.820;4.884;2023-07-31T09:03:18;16.50;;;15.50;;
15905;SDS011;8051;50.820;4.884;2023-07-31T09:05:48;16.47;;;15.47;;
15905;SDS011;8051;50.820;4.884;2023-07-31T09:08:19;15.83;;;14.93;;
15905;SDS011;8051;50.820;4.884;2023-07-31T09:10:48;16.83;;;15.73;;
15905;SDS011;8051;50.820;4.884;2023-07-31T09:13:16;17.40;;;16.20;;
15905;SDS011;8051;50.820;4.884;2023-07-31T09:15:44;17.37;;;16.30;;
15905;SDS011;8051;50.820;4.884;2023-07-31T09:18:12;17.97;;;16.70;;
15905;SDS011;8051;50.820;4.884;2023-07-31T09:20:43;19.17;;;18.03;;
15905;SDS011;8051;50.820;4.884;2023-07-31T09:23:12;19.50;;;18.30;;
15905;SDS011;8051;50.820;4.884;2023-07-31T09:25:44;17.97;;;16.77;;
15905;SDS011;8051;50.820;4.884;2023-07-31T09:28:12;20.30;;;18.70;;
15905;SDS011;8051;50.820;4.884;2023-07-31T09:30:46;18.97;;;17.77;;
15905;SDS011;8051;50.820;4.884;2023-07-31T09:33:15;19.13;;;18.00;;
15905;SDS011;8051;50.820;4.884;2023-07-31T09:35:43;18.80;;;17.60;;
15905;SDS011;8051;50.820;4.884;2023-07-31T09:38:11;18.63;;;17.63;;
15905;SDS011;8051;50.820;4.884;2023-07-31T09:40:39;17.13;;;16.03;;
15905;SDS011;8051;50.820;4.884;2023-07-31T09:43:09;18.87;;;17.47;;
15905;SDS011;8051;50.820;4.884;2023-07-31T09:45:39;18.80;;;17.60;;
15905;SDS011;8051;50.820;4.884;2023-07-31T09:48:07;19.43;;;17.70;;
15905;SDS011;8051;50.820;4.884;2023-07-31T09:50:36;19.27;;;18.07;;
15905;SDS011;8051;50.820;4.884;2023-07-31T09:53:04;20.60;;;18.93;;
15905;SDS011;8051;50.820;4.884;2023-07-31T09:55:32;20.53;;;19.03;;
15905;SDS011;8051;50.820;4.884;2023-07-31T09:58:02;19.93;;;18.63;;
15905;SDS011;8051;50.820;4.884;2023-07-31T10:00:33;21.60;;;20.27;;
15905;SDS011;8051;50.820;4.884;2023-07-31T10:03:00;20.57;;;19.17;;
15905;SDS011;8051;50.820;4.884;2023-07-31T10:05:31;21.53;;;19.93;;
15905;SDS011;8051;50.820;4.884;2023-07-31T10:08:00;21.40;;;19.80;;
15905;SDS011;8051;50.820;4.884;2023-07-31T10:10:28;20.63;;;19.00;;
15905;SDS011;8051;50.820;4.884;2023-07-31T10:12:56;18.97;;;17.57;;
15905;SDS011;8051;50.820;4.884;2023-07-31T10:15:23;18.70;;;17.07;;
15905;SDS011;8051;50.820;4.884;2023-07-31T10:17:54;19.23;;;17.83;;
15905;SDS011;8051;50.820;4.884;2023-07-31T10:20:23;17.80;;;16.63;;
15905;SDS011;8051;50.820;4.884;2023-07-31T10:22:51;18.47;;;17.27;;
15905;SDS011;8051;50.820;4.884;2023-07-31T10:25:21;19.50;;;17.83;;
15905;SDS011;8051;50.820;4.884;2023-07-31T10:27:49;18.37;;;16.90;;
15905;SDS011;8051;50.820;4.884;2023-07-31T10:30:20;18.93;;;17.40;;
15905;SDS011;8051;50.820;4.884;2023-07-31T10:32:50;19.10;;;17.73;;
15905;SDS011;8051;50.820;4.884;2023-07-31T10:35:21;20.87;;;19.37;;
15905;SDS011;8051;50.820;4.884;2023-07-31T10:37:48;20.80;;;19.30;;
15905;SDS011;8051;50.820;4.884;2023-07-31T10:40:16;19.07;;;17.97;;
15905;SDS011;8051;50.820;4.884;2023-07-31T10:42:46;20.50;;;19.30;;
15905;SDS011;8051;50.820;4.884;2023-07-31T10:45:23;21.73;;;20.23;;
15905;SDS011;8051;50.820;4.884;2023-07-31T10:47:58;22.50;;;20.63;;
15905;SDS011;8051;50.820;4.884;2023-07-31T10:50:28;22.27;;;20.13;;
15905;SDS011;8051;50.820;4.884;2023-07-31T10:52:58;22.40;;;20.80;;
15905;SDS011;8051;50.820;4.884;2023-07-31T10:55:30;22.27;;;20.67;;
15905;SDS011;8051;50.820;4.884;2023-07-31T10:58:05;21.17;;;19.47;;
15905;SDS011;8051;50.820;4.884;2023-07-31T11:00:33;21.47;;;19.77;;
15905;SDS011;8051;50.820;4.884;2023-07-31T11:03:03;22.77;;;21.03;;
15905;SDS011;8051;50.820;4.884;2023-07-31T11:05:43;22.83;;;21.33;;
15905;SDS011;8051;50.820;4.884;2023-07-31T11:08:15;21.43;;;20.03;;
15905;SDS011;8051;50.820;4.884;2023-07-31T11:10:44;23.33;;;21.50;;
15905;SDS011;8051;50.820;4.884;2023-07-31T11:13:12;22.77;;;20.83;;
15905;SDS011;8051;50.820;4.884;2023-07-31T11:15:40;22.90;;;21.30;;
15905;SDS011;8051;50.820;4.884;2023-07-31T11:18:07;23.20;;;20.97;;
15905;SDS011;8051;50.820;4.884;2023-07-31T11:20:36;23.03;;;21.23;;
15905;SDS011;8051;50.820;4.884;2023-07-31T11:23:08;23.57;;;21.80;;
15905;SDS011;8051;50.820;4.884;2023-07-31T11:25:37;23.47;;;21.63;;
15905;SDS011;8051;50.820;4.884;2023-07-31T11:28:08;22.37;;;20.60;;
15905;SDS011;8051;50.820;4.884;2023-07-31T11:30:37;20.90;;;19.43;;
15905;SDS011;8051;50.820;4.884;2023-07-31T11:33:06;21.90;;;20.33;;
15905;SDS011;8051;50.820;4.884;2023-07-31T11:35:35;22.60;;;20.90;;
15905;SDS011;8051;50.820;4.884;2023-07-31T11:38:10;21.17;;;19.67;;
15905;SDS011;8051;50.820;4.884;2023-07-31T11:40:41;21.73;;;20.23;;
15905;SDS011;8051;50.820;4.884;2023-07-31T11:43:08;19.57;;;18.13;;
15905;SDS011;8051;50.820;4.884;2023-07-31T11:45:41;22.37;;;20.87;;
15905;SDS011;8051;50.820;4.884;2023-07-31T11:48:17;21.20;;;19.73;;
15905;SDS011;8051;50.820;4.884;2023-07-31T11:50:46;22.83;;;21.23;;
15905;SDS011;8051;50.820;4.884;2023-07-31T11:53:17;22.10;;;20.23;;
15905;SDS011;8051;50.820;4.884;2023-07-31T11:55:49;21.50;;;19.73;;
15905;SDS011;8051;50.820;4.884;2023-07-31T11:58:17;20.07;;;18.60;;
15905;SDS011;8051;50.820;4.884;2023-07-31T12:00:46;19.90;;;18.33;;
15905;SDS011;8051;50.820;4.884;2023-07-31T12:03:15;21.90;;;20.17;;
15905;SDS011;8051;50.820;4.884;2023-07-31T12:05:42;21.60;;;20.17;;
15905;SDS011;8051;50.820;4.884;2023-07-31T12:08:10;23.03;;;21.43;;
15905;SDS011;8051;50.820;4.884;2023-07-31T12:10:40;21.73;;;20.13;;
15905;SDS011;8051;50.820;4.884;2023-07-31T12:13:08;21.57;;;19.83;;
15905;SDS011;8051;50.820;4.884;2023-07-31T12:15:39;19.70;;;18.30;;
15905;SDS011;8051;50.820;4.884;2023-07-31T12:18:08;22.40;;;20.33;;
15905;SDS011;8051;50.820;4.884;2023-07-31T12:20:40;23.07;;;21.37;;
15905;SDS011;8051;50.820;4.884;2023-07-31T12:23:15;21.63;;;20.17;;
15905;SDS011;8051;50.820;4.884;2023-07-31T12:25:46;23.03;;;21.23;;
15905;SDS011;8051;50.820;4.884;2023-07-31T12:28:13;22.03;;;20.63;;
15905;SDS011;8051;50.820;4.884;2023-07-31T12:30:41;21.00;;;19.60;;
15905;SDS011;8051;50.820;4.884;2023-07-31T12:33:12;21.40;;;19.67;;
15905;SDS011;8051;50.820;4.884;2023-07-31T12:35:41;20.10;;;18.83;;
15905;SDS011;8051;50.820;4.884;2023-07-31T12:38:11;19.50;;;18.20;;
15905;SDS011;8051;50.820;4.884;2023-07-31T12:40:39;21.93;;;19.77;;
15905;SDS011;8051;50.820;4.884;2023-07-31T12:43:08;21.80;;;20.30;;
15905;SDS011;8051;50.820;4.884;2023-07-31T12:45:36;20.93;;;19.40;;
15905;SDS011;8051;50.820;4.884;2023-07-31T12:48:03;21.33;;;19.90;;
15905;SDS011;8051;50.820;4.884;2023-07-31T12:50:31;22.07;;;19.77;;
15905;SDS011;8051;50.820;4.884;2023-07-31T12:53:01;22.13;;;20.30;;
15905;SDS011;8051;50.820;4.884;2023-07-31T12:55:30;19.90;;;18.40;;
15905;SDS011;8051;50.820;4.884;2023-07-31T12:57:59;21.27;;;19.77;;
15905;SDS011;8051;50.820;4.884;2023-07-31T13:00:28;22.33;;;20.70;;
15905;SDS011;8051;50.820;4.884;2023-07-31T13:02:56;21.97;;;20.27;;
15905;SDS011;8051;50.820;4.884;2023-07-31T13:05:23;23.40;;;21.77;;
15905;SDS011;8051;50.820;4.884;2023-07-31T13:07:51;23.77;;;21.97;;
15905;SDS011;8051;50.820;4.884;2023-07-31T13:10:18;23.40;;;21.80;;
15905;SDS011;8051;50.820;4.884;2023-07-31T13:12:46;22.10;;;20.40;;
15905;SDS011;8051;50.820;4.884;2023-07-31T13:15:13;21.17;;;19.77;;
15905;SDS011;8051;50.820;4.884;2023-07-31T13:17:43;22.73;;;21.03;;
15905;SDS011;8051;50.820;4.884;2023-07-31T13:20:10;21.90;;;20.40;;
15905;SDS011;8051;50.820;4.884;2023-07-31T13:22:38;22.97;;;21.43;;
15905;SDS011;8051;50.820;4.884;2023-07-31T13:25:06;23.77;;;21.93;;
15905;SDS011;8051;50.820;4.884;2023-07-31T13:27:34;21.70;;;20.30;;
15905;SDS011;8051;50.820;4.884;2023-07-31T13:30:02;22.63;;;21.03;;
15905;SDS011;8051;50.820;4.884;2023-07-31T13:32:29;23.40;;;21.60;;
15905;SDS011;8051;50.820;4.884;2023-07-31T13:34:58;22.30;;;20.90;;
15905;SDS011;8051;50.820;4.884;2023-07-31T13:37:26;20.50;;;19.20;;
15905;SDS011;8051;50.820;4.884;2023-07-31T13:39:53;20.87;;;19.30;;
15905;SDS011;8051;50.820;4.884;2023-07-31T13:42:21;22.77;;;20.97;;
15905;SDS011;8051;50.820;4.884;2023-07-31T13:44:48;21.47;;;19.70;;
15905;SDS011;8051;50.820;4.884;2023-07-31T13:47:15;20.93;;;19.63;;
15905;SDS011;8051;50.820;4.884;2023-07-31T13:49:43;22.67;;;21.07;;
15905;SDS011;8051;50.820;4.884;2023-07-31T13:52:12;23.50;;;21.60;;
15905;SDS011;8051;50.820;4.884;2023-07-31T13:54:39;22.17;;;20.83;;
15905;SDS011;8051;50.820;4.884;2023-07-31T13:57:08;19.90;;;18.70;;
15905;SDS011;8051;50.820;4.884;2023-07-31T13:59:35;20.73;;;19.43;;
15905;SDS011;8051;50.820;4.884;2023-07-31T14:02:03;18.23;;;17.03;;
15905;SDS011;8051;50.820;4.884;2023-07-31T14:04:30;19.33;;;18.03;;
15905;SDS011;8051;50.820;4.884;2023-07-31T14:06:58;19.33;;;18.07;;
15905;SDS011;8051;50.820;4.884;2023-07-31T14:09:27;19.33;;;17.77;;
15905;SDS011;8051;50.820;4.884;2023-07-31T14:11:54;19.03;;;17.60;;
15905;SDS011;8051;50.820;4.884;2023-07-31T14:14:22;18.13;;;16.97;;
15905;SDS011;8051;50.820;4.884;2023-07-31T14:16:49;17.20;;;16.20;;
15905;SDS011;8051;50.820;4.884;2023-07-31T14:19:17;17.07;;;15.97;;
15905;SDS011;8051;50.820;4.884;2023-07-31T14:21:44;16.97;;;15.87;;
15905;SDS011;8051;50.820;4.884;2023-07-31T14:24:11;15.73;;;14.83;;
15905;SDS011;8051;50.820;4.884;2023-07-31T14:26:40;14.90;;;14.00;;
15905;SDS011;8051;50.820;4.884;2023-07-31T14:29:08;16.77;;;15.70;;
15905;SDS011;8051;50.820;4.884;2023-07-31T14:31:35;16.37;;;15.27;;
15905;SDS011;8051;50.820;4.884;2023-07-31T14:34:03;16.07;;;15.17;;
15905;SDS011;8051;50.820;4.884;2023-07-31T14:36:30;16.43;;;15.23;;
15905;SDS011;8051;50.820;4.884;2023-07-31T14:38:57;15.47;;;14.23;;
15905;SDS011;8051;50.820;4.884;2023-07-31T14:41:25;14.07;;;13.30;;